Time;durP1;ratioP1;P1;durP2;ratioP2;P2;SDS_P1;SDS_P2;PMS_P1;PMS_P2;Temp;Humidity;BMP_temperature;BMP_pressure;BME280_temperature;BME280_humidity;BME280_pressure;Samples;Min_cycle;Max_cycle;Signal;HPM_P1;HPM_P2
2021/12/17 00:05:05;;;;;;;45.95;11.23;;;;;;;;;;5051395;28;20048;-86
2021/12/17 00:07:30;;;;;;;;;;;;;;;;;;5051964;28;20021;-86
2021/12/17 00:09:56;;;;;;;52.67;12.40;;;;;;;;;;5051009;28;19991;-85
2021/12/17 00:12:22;;;;;;;48.55;11.85;;;;;;;;;;5050916;28;20032;-86
2021/12/17 00:14:49;;;;;;;38.92;11.80;;;;;;;;;;5032266;28;20357;-85
2021/12/17 00:17:19;;;;;;;44.35;11.93;;;;;;;;;;5050923;28;20035;-85
2021/12/17 00:50:40;;;;;;;48.40;11.65;;;;;;;;;;5050628;28;20025;-86
2021/12/17 00:52:35;;;;;;;38.05;10.30;;;;;;;;;;5042234;28;20047;-86
2021/12/17 00:55:01;;;;;;;26.85;9.15;;;;;;;;;;5050040;28;20122;-86
2021/12/17 00:57:30;;;;;;;29.40;10.18;;;;;;;;;;5032427;28;20473;-86
2021/12/17 00:59:56;;;;;;;39.88;11.02;;;;;;;;;;5048705;28;20048;-86
2021/12/17 01:02:24;;;;;;;33.88;10.65;;;;;;;;;;5050120;28;20049;-86
2021/12/17 01:04:51;;;;;;;39.08;10.70;;;;;;;;;;5049172;28;20061;-85
2021/12/17 01:07:18;;;;;;;27.60;9.30;;;;;;;;;;5031226;28;20142;-86
2021/12/17 01:09:45;;;;;;;53.58;11.63;;;;;;;;;;5049673;28;20013;-85
2021/12/17 01:12:12;;;;;;;46.83;10.75;;;;;;;;;;5049720;28;20052;-86
2021/12/17 01:14:37;;;;;;;40.08;10.55;;;;;;;;;;5031152;28;20029;-85
2021/12/17 01:17:03;;;;;;;35.80;9.23;;;;;;;;;;5031021;28;20469;-86
2021/12/17 01:20:05;;;;;;;33.55;10.65;;;;;;;;;;5049672;28;20745;-86
2021/12/17 01:25:08;;;;;;;46.08;10.85;;;;;;;;;;5050607;28;20515;-86
2021/12/17 01:35:45;;;;;;;38.08;10.35;;;;;;;;;;5050263;28;20511;-86
2021/12/17 01:41:15;;;;;;;51.38;11.20;;;;;;;;;;5054028;28;20040;-85
2021/12/17 01:43:44;;;;;;;40.80;11.38;;;;;;;;;;5053777;28;20054;-86
2021/12/17 01:46:14;;;;;;;40.45;10.68;;;;;;;;;;5053496;28;20025;-86
2021/12/17 01:49:01;;;;;;;48.88;13.32;;;;;;;;;;5035495;28;20032;-85
2021/12/17 01:57:00;;;;;;;34.95;11.32;;;;;;;;;;5053411;28;20451;-85
2021/12/17 01:59:33;;;;;;;45.35;11.05;;;;;;;;;;5053530;28;20020;-86
2021/12/17 02:02:02;;;;;;;43.95;12.20;;;;;;;;;;5035291;28;20132;-86
2021/12/17 02:04:29;;;;;;;50.40;13.80;;;;;;;;;;5035998;28;20170;-85
2021/12/17 02:06:54;;;;;;;38.42;11.45;;;;;;;;;;5035269;28;20043;-86
2021/12/17 02:20:23;;;;;;;39.30;13.10;;;;;;;;;;5052944;28;20087;-85
2021/12/17 02:23:21;;;;;;;50.22;13.90;;;;;;;;;;5052870;28;20013;-85
2021/12/17 02:28:45;;;;;;;73.03;14.25;;;;;;;;;;5053553;28;20024;-86
2021/12/17 02:31:26;;;;;;;38.58;12.85;;;;;;;;;;5051400;28;20032;-85
2021/12/17 02:33:53;;;;;;;34.10;11.37;;;;;;;;;;5052812;28;20392;-86
2021/12/17 02:36:23;;;;;;;45.65;12.23;;;;;;;;;;5052340;28;20025;-86
2021/12/17 02:38:48;;;;;;;33.75;11.10;;;;;;;;;;5052999;28;20805;-86
2021/12/17 02:46:42;;;;;;;47.60;11.23;;;;;;;;;;5052237;28;20086;-86
2021/12/17 02:49:07;;;;;;;58.75;11.20;;;;;;;;;;5052374;28;20029;-86
2021/12/17 02:51:33;;;;;;;80.40;13.15;;;;;;;;;;5052322;28;20021;-86
2021/12/17 02:53:59;;;;;;;45.67;11.68;;;;;;;;;;5052445;28;20045;-85
2021/12/17 02:56:24;;;;;;;33.92;10.35;;;;;;;;;;5053508;28;20029;-85
2021/12/17 02:58:50;;;;;;;66.53;12.05;;;;;;;;;;5052397;28;20025;-85
2021/12/17 03:01:16;;;;;;;44.60;10.65;;;;;;;;;;5034251;28;20472;-86
2021/12/17 03:03:44;;;;;;;85.93;11.88;;;;;;;;;;5034138;28;20028;-86
2021/12/17 03:06:09;;;;;;;52.45;9.60;;;;;;;;;;5033983;28;20032;-86
2021/12/17 03:08:34;;;;;;;37.22;9.07;;;;;;;;;;5050526;28;20051;-85
2021/12/17 03:11:00;;;;;;;30.10;8.38;;;;;;;;;;5052101;28;20238;-86
2021/12/17 03:13:27;;;;;;;86.45;10.82;;;;;;;;;;5051956;28;20021;-86
2021/12/17 03:16:13;;;;;;;30.85;9.52;;;;;;;;;;5052118;28;20017;-86
2021/12/17 03:23:50;;;;;;;181.40;12.35;;;;;;;;;;5052167;28;20036;-86
2021/12/17 03:26:16;;;;;;;77.57;9.13;;;;;;;;;;5050251;28;20412;-86
2021/12/17 03:28:44;;;;;;;149.38;11.00;;;;;;;;;;5050025;28;20048;-86
2021/12/17 03:31:10;;;;;;;79.53;10.15;;;;;;;;;;5050573;28;20111;-86
2021/12/17 03:33:36;;;;;;;117.38;11.30;;;;;;;;;;5051320;28;20112;-85
2021/12/17 03:36:01;;;;;;;88.82;9.77;;;;;;;;;;5033445;28;20029;-85
2021/12/17 03:38:27;;;;;;;50.88;9.15;;;;;;;;;;5050085;28;20476;-86
2021/12/17 03:41:03;;;;;;;28.33;9.30;;;;;;;;;;5051930;28;20749;-86
2021/12/17 03:43:30;;;;;;;39.97;10.63;;;;;;;;;;5051526;28;20035;-86
2021/12/17 03:45:56;;;;;;;52.13;11.23;;;;;;;;;;5051511;28;20055;-86
2021/12/17 03:48:21;;;;;;;34.88;7.93;;;;;;;;;;5051692;28;20040;-86
2021/12/17 03:50:46;;;;;;;25.45;7.43;;;;;;;;;;5051564;28;20024;-86
2021/12/17 03:53:12;;;;;;;18.58;7.50;;;;;;;;;;5051192;28;20055;-86
2021/12/17 03:55:37;;;;;;;37.17;8.68;;;;;;;;;;5051385;28;20124;-85
2021/12/17 03:58:02;;;;;;;23.10;8.00;;;;;;;;;;5049687;28;20024;-86
2021/12/17 04:00:28;;;;;;;30.25;8.55;;;;;;;;;;5051110;28;20645;-86
2021/12/17 04:02:54;;;;;;;23.63;8.18;;;;;;;;;;5050342;28;20021;-85
2021/12/17 04:05:19;;;;;;;39.22;7.47;;;;;;;;;;5051095;28;20036;-86
2021/12/17 04:07:44;;;;;;;23.58;7.10;;;;;;;;;;5049685;28;20021;-86
2021/12/17 04:10:10;;;;;;;37.20;8.10;;;;;;;;;;5050976;28;20025;-86
2021/12/17 04:12:56;;;;;;;21.73;6.97;;;;;;;;;;5049668;28;20079;-85
2021/12/17 04:15:33;;;;;;;24.42;8.25;;;;;;;;;;5049237;28;20056;-85
2021/12/17 04:17:59;;;;;;;28.02;8.43;;;;;;;;;;5051054;28;20107;-86
2021/12/17 04:20:24;;;;;;;34.00;8.38;;;;;;;;;;5050327;28;20096;-85
2021/12/17 04:22:50;;;;;;;22.98;9.02;;;;;;;;;;5049228;28;20025;-85
2021/12/17 04:25:15;;;;;;;29.55;8.88;;;;;;;;;;5049277;28;20037;-85
2021/12/17 04:27:41;;;;;;;40.40;9.63;;;;;;;;;;5049378;28;20412;-85
2021/12/17 04:30:06;;;;;;;38.10;10.43;;;;;;;;;;5050623;28;20333;-85
2021/12/17 04:32:31;;;;;;;58.58;11.23;;;;;;;;;;5051197;28;20067;-85
2021/12/17 04:34:56;;;;;;;48.08;10.63;;;;;;;;;;5050251;28;20477;-85
2021/12/17 04:37:21;;;;;;;77.15;10.35;;;;;;;;;;5049866;28;20029;-86
2021/12/17 04:39:47;;;;;;;94.25;13.30;;;;;;;;;;5031615;28;20027;-86
2021/12/17 04:42:19;;;;;;;37.92;10.82;;;;;;;;;;5048401;28;20020;-85
2021/12/17 04:44:52;;;;;;;32.90;10.45;;;;;;;;;;5049539;28;20461;-85
2021/12/17 04:57:58;;;;;;;39.22;10.02;;;;;;;;;;5050091;28;20218;-86
2021/12/17 05:00:26;;;;;;;47.28;9.00;;;;;;;;;;5050364;28;20062;-86
2021/12/17 05:02:54;;;;;;;46.88;9.48;;;;;;;;;;5048366;28;20025;-86
2021/12/17 05:05:21;;;;;;;48.60;9.73;;;;;;;;;;5049644;28;20538;-85
2021/12/17 05:07:54;;;;;;;36.35;9.80;;;;;;;;;;5048281;28;20025;-86
2021/12/17 05:18:24;;;;;;;38.63;8.40;;;;;;;;;;5049649;28;20115;-85
2021/12/17 05:20:53;;;;;;;36.60;8.57;;;;;;;;;;5047670;28;20025;-85
2021/12/17 05:23:23;;;;;;;44.85;8.88;;;;;;;;;;5049349;28;20032;-86
2021/12/17 05:25:48;;;;;;;31.90;7.68;;;;;;;;;;5049432;28;20035;-85
2021/12/17 05:28:14;;;;;;;20.38;6.88;;;;;;;;;;5031137;28;20021;-86
2021/12/17 05:30:45;;;;;;;21.90;6.85;;;;;;;;;;5047799;28;20029;-86
2021/12/17 05:33:10;;;;;;;12.07;5.45;;;;;;;;;;5049805;28;20021;-86
2021/12/17 05:35:35;;;;;;;9.13;3.78;;;;;;;;;;5047559;28;20431;-86
2021/12/17 05:38:01;;;;;;;4.90;3.10;;;;;;;;;;5048018;28;20029;-85
2021/12/17 05:40:26;;;;;;;4.20;2.50;;;;;;;;;;5047767;28;20302;-86
2021/12/17 05:42:55;;;;;;;7.38;2.50;;;;;;;;;;5049383;28;20052;-86
2021/12/17 05:45:31;;;;;;;5.38;2.38;;;;;;;;;;5047765;28;20033;-86
2021/12/17 05:47:56;;;;;;;5.63;2.78;;;;;;;;;;5050301;28;20032;-86
2021/12/17 05:50:21;;;;;;;4.27;2.47;;;;;;;;;;5049708;28;20020;-86
2021/12/17 05:52:48;;;;;;;4.57;2.35;;;;;;;;;;5030923;28;20267;-86
2021/12/17 05:55:13;;;;;;;5.15;2.15;;;;;;;;;;5049756;28;20024;-86
2021/12/17 05:57:38;;;;;;;5.80;2.38;;;;;;;;;;5031808;28;20107;-86
2021/12/17 06:00:04;;;;;;;3.55;2.28;;;;;;;;;;5048460;28;20821;-86
2021/12/17 06:02:31;;;;;;;8.48;2.15;;;;;;;;;;5044309;28;20021;-87
2021/12/17 06:04:56;;;;;;;2.63;1.73;;;;;;;;;;5014134;28;20029;-87
2021/12/17 06:07:28;;;;;;;3.72;2.20;;;;;;;;;;5027380;28;20516;-86
2021/12/17 06:09:53;;;;;;;;;;;;;;;;;;5024154;28;20554;-85
2021/12/17 06:12:18;;;;;;;3.42;2.22;;;;;;;;;;5027836;28;20383;-86
2021/12/17 06:14:44;;;;;;;2.65;1.65;;;;;;;;;;5017812;28;20482;-86
2021/12/17 06:17:09;;;;;;;2.45;1.77;;;;;;;;;;4990063;28;20034;-86
2021/12/17 06:19:34;;;;;;;2.03;1.67;;;;;;;;;;5021019;28;20017;-85
2021/12/17 06:21:59;;;;;;;3.13;2.07;;;;;;;;;;5023132;28;20344;-86
2021/12/17 06:24:25;;;;;;;5.80;2.50;;;;;;;;;;5015455;28;20322;-86
2021/12/17 06:26:50;;;;;;;3.88;2.40;;;;;;;;;;5018259;28;20038;-85
2021/12/17 06:29:16;;;;;;;16.98;2.85;;;;;;;;;;5027365;28;20021;-89
2021/12/17 06:31:42;;;;;;;3.10;2.03;;;;;;;;;;5032097;28;20858;-89
2021/12/17 06:34:07;;;;;;;3.33;2.17;;;;;;;;;;5032169;28;20441;-89
2021/12/17 06:36:32;;;;;;;6.20;2.00;;;;;;;;;;5032623;28;20026;-89
2021/12/17 06:38:57;;;;;;;5.32;2.00;;;;;;;;;;5016296;28;20305;-89
2021/12/17 06:41:22;;;;;;;5.90;2.33;;;;;;;;;;5033299;28;20700;-89
2021/12/17 06:43:48;;;;;;;4.60;2.15;;;;;;;;;;5033299;28;20022;-89
2021/12/17 06:46:35;;;;;;;4.72;1.88;;;;;;;;;;5034082;28;20029;-89
2021/12/17 06:54:50;;;;;;;5.80;3.00;;;;;;;;;;5032514;28;20064;-89
2021/12/17 07:08:54;;;;;;;7.88;3.53;;;;;;;;;;5012690;28;20131;-89
2021/12/17 07:34:08;;;;;;;14.98;5.35;;;;;;;;;;5028988;28;20512;-85
2021/12/17 07:38:35;;;;;;;18.13;5.03;;;;;;;;;;5028430;28;20029;-86
2021/12/17 07:39:34;;;;;;;28.23;5.45;;;;;;;;;;5028956;28;20040;-85
2021/12/17 07:41:59;;;;;;;25.77;6.03;;;;;;;;;;5029275;28;20112;-85
2021/12/17 07:44:24;;;;;;;20.83;6.07;;;;;;;;;;5011604;28;20029;-86
2021/12/17 07:46:49;;;;;;;19.45;5.95;;;;;;;;;;5029622;28;20053;-85
2021/12/17 07:49:14;;;;;;;38.15;6.43;;;;;;;;;;5029763;28;20029;-86
2021/12/17 07:51:40;;;;;;;26.77;6.77;;;;;;;;;;5028613;28;20033;-86
2021/12/17 07:54:05;;;;;;;29.07;7.73;;;;;;;;;;5011614;28;21280;-86
2021/12/17 07:56:31;;;;;;;29.27;7.03;;;;;;;;;;5029443;28;20248;-86
2021/12/17 07:58:57;;;;;;;22.83;8.05;;;;;;;;;;5010879;28;20369;-86
2021/12/17 08:01:22;;;;;;;23.50;6.88;;;;;;;;;;5029382;28;20021;-86
2021/12/17 08:03:48;;;;;;;21.53;7.13;;;;;;;;;;5010864;28;20083;-85
2021/12/17 08:06:13;;;;;;;20.35;6.45;;;;;;;;;;5029011;28;20323;-86
2021/12/17 08:08:38;;;;;;;17.83;8.90;;;;;;;;;;5027983;28;20048;-85
2021/12/17 08:11:04;;;;;;;26.40;7.38;;;;;;;;;;5028587;28;20032;-86
2021/12/17 08:13:32;;;;;;;23.75;6.45;;;;;;;;;;5028832;28;20021;-85
2021/12/17 08:26:56;;;;;;;40.80;8.48;;;;;;;;;;5028919;28;20041;-85
2021/12/17 08:29:27;;;;;;;45.13;7.45;;;;;;;;;;5028812;28;20289;-86
2021/12/17 08:31:53;;;;;;;61.83;8.50;;;;;;;;;;5011118;28;20417;-86
2021/12/17 08:34:18;;;;;;;36.15;7.63;;;;;;;;;;5010889;28;20100;-86
2021/12/17 08:36:43;;;;;;;29.70;9.10;;;;;;;;;;5028875;28;20018;-87
2021/12/17 08:39:09;;;;;;;54.70;10.30;;;;;;;;;;5028857;28;20644;-87
2021/12/17 08:41:34;;;;;;;40.47;8.80;;;;;;;;;;5028028;28;20040;-87
2021/12/17 08:43:59;;;;;;;32.78;8.20;;;;;;;;;;5028989;28;20526;-87
2021/12/17 08:46:25;;;;;;;66.03;10.13;;;;;;;;;;5028919;28;20390;-87
2021/12/17 08:48:50;;;;;;;40.50;9.98;;;;;;;;;;5010599;28;20268;-87
2021/12/17 08:51:15;;;;;;;18.65;8.27;;;;;;;;;;5028729;28;20445;-85
2021/12/17 08:53:41;;;;;;;17.55;8.40;;;;;;;;;;5009812;28;20053;-86
2021/12/17 08:56:06;;;;;;;42.77;10.43;;;;;;;;;;5027967;28;20088;-86
2021/12/17 08:58:32;;;;;;;48.75;11.13;;;;;;;;;;5032611;28;20314;-86
2021/12/17 09:00:57;;;;;;;32.78;9.02;;;;;;;;;;5027620;28;20021;-85
2021/12/17 09:03:23;;;;;;;30.90;9.77;;;;;;;;;;5009086;28;20409;-86
2021/12/17 09:05:48;;;;;;;15.90;7.10;;;;;;;;;;5027902;28;20034;-85
2021/12/17 09:08:13;;;;;;;17.65;7.75;;;;;;;;;;5027985;28;20033;-86
2021/12/17 09:10:39;;;;;;;28.33;8.25;;;;;;;;;;5028556;28;20025;-85
2021/12/17 09:13:05;;;;;;;18.02;6.20;;;;;;;;;;5026793;28;20136;-86
2021/12/17 09:15:31;;;;;;;17.80;6.47;;;;;;;;;;5027833;28;20049;-86
2021/12/17 09:17:56;;;;;;;21.38;7.13;;;;;;;;;;5027339;28;20127;-85
2021/12/17 09:20:21;;;;;;;18.52;6.50;;;;;;;;;;5026424;28;20047;-86
2021/12/17 09:22:47;;;;;;;28.60;8.48;;;;;;;;;;5009712;28;20017;-86
2021/12/17 09:25:12;;;;;;;11.93;6.10;;;;;;;;;;5009396;28;20032;-86
2021/12/17 09:27:37;;;;;;;19.48;5.90;;;;;;;;;;5027779;28;20034;-86
2021/12/17 09:30:07;;;;;;;12.80;5.45;;;;;;;;;;5026380;28;20591;-87
2021/12/17 09:32:32;;;;;;;16.80;6.70;;;;;;;;;;5027962;28;20021;-86
2021/12/17 09:34:57;;;;;;;12.73;5.97;;;;;;;;;;5027786;28;20021;-86
2021/12/17 09:37:23;;;;;;;7.55;5.05;;;;;;;;;;5027946;28;20026;-86
2021/12/17 09:39:48;;;;;;;9.85;4.20;;;;;;;;;;5028775;28;20087;-86
2021/12/17 09:42:14;;;;;;;14.05;4.88;;;;;;;;;;5032952;28;20025;-86
2021/12/17 09:44:41;;;;;;;19.42;5.05;;;;;;;;;;5032411;28;20021;-86
2021/12/17 09:47:06;;;;;;;13.85;4.25;;;;;;;;;;5015046;28;20060;-85
2021/12/17 09:49:31;;;;;;;26.60;4.82;;;;;;;;;;5012160;28;20060;-86
2021/12/17 09:51:59;;;;;;;14.57;5.17;;;;;;;;;;5027567;28;20100;-86
2021/12/17 09:54:24;;;;;;;18.55;4.60;;;;;;;;;;5009809;28;20829;-84
2021/12/17 09:56:49;;;;;;;18.75;3.70;;;;;;;;;;5027025;28;20033;-84
2021/12/17 09:59:15;;;;;;;14.10;4.77;;;;;;;;;;5026608;28;20547;-84
2021/12/17 10:01:42;;;;;;;24.02;4.97;;;;;;;;;;5030692;28;20252;-84
2021/12/17 10:04:16;;;;;;;24.30;5.10;;;;;;;;;;5029982;28;20097;-84
2021/12/17 10:06:42;;;;;;;14.70;5.72;;;;;;;;;;5027767;28;20037;-84
2021/12/17 10:09:07;;;;;;;17.02;4.55;;;;;;;;;;5011016;28;20021;-84
2021/12/17 10:11:33;;;;;;;7.63;4.13;;;;;;;;;;5028991;28;20024;-85
2021/12/17 10:14:17;;;;;;;13.27;4.90;;;;;;;;;;5029240;28;20303;-84
2021/12/17 10:16:42;;;;;;;7.32;4.22;;;;;;;;;;5029052;28;20268;-85
2021/12/17 10:19:08;;;;;;;18.20;5.20;;;;;;;;;;5010939;28;20082;-85
2021/12/17 10:21:38;;;;;;;11.97;4.43;;;;;;;;;;5029359;28;20117;-85
2021/12/17 10:24:04;;;;;;;18.77;5.00;;;;;;;;;;5011085;28;20276;-85
2021/12/17 10:26:39;;;;;;;14.05;4.70;;;;;;;;;;5011330;28;20033;-85
2021/12/17 10:29:04;;;;;;;13.38;4.43;;;;;;;;;;5029512;28;20017;-85
2021/12/17 10:31:31;;;;;;;15.43;5.25;;;;;;;;;;5028120;28;20029;-85
2021/12/17 10:33:59;;;;;;;9.00;4.07;;;;;;;;;;5029891;28;20021;-85
2021/12/17 10:36:31;;;;;;;7.30;4.15;;;;;;;;;;5011935;28;20029;-85
2021/12/17 10:38:56;;;;;;;;;;;;;;;;;;5028681;28;20580;-85
2021/12/17 10:41:25;;;;;;;7.05;4.05;;;;;;;;;;5028221;28;20455;-85
2021/12/17 10:43:56;;;;;;;9.25;4.30;;;;;;;;;;5008858;28;20061;-85
2021/12/17 10:46:27;;;;;;;4.20;2.93;;;;;;;;;;4999947;28;20060;-85
2021/12/17 10:49:17;;;;;;;3.63;2.67;;;;;;;;;;5013350;28;20778;-85
2021/12/17 10:54:17;;;;;;;3.53;2.80;;;;;;;;;;5029974;28;20776;-85
2021/12/17 10:56:45;;;;;;;4.70;3.80;;;;;;;;;;5029941;28;20029;-86
2021/12/17 10:59:11;;;;;;;4.25;2.88;;;;;;;;;;5011902;28;20052;-85
2021/12/17 11:01:44;;;;;;;5.75;3.20;;;;;;;;;;5029512;28;20026;-89
2021/12/17 11:04:24;;;;;;;9.52;3.50;;;;;;;;;;5032555;28;20025;-89
2021/12/17 11:07:01;;;;;;;7.10;3.42;;;;;;;;;;5032522;28;20433;-89
2021/12/17 11:09:44;;;;;;;6.22;3.63;;;;;;;;;;5032666;28;20025;-89
2021/12/17 11:12:28;;;;;;;6.82;3.75;;;;;;;;;;5032358;28;20032;-90
2021/12/17 11:14:56;;;;;;;4.53;2.85;;;;;;;;;;5031509;28;20846;-89
2021/12/17 11:17:21;;;;;;;4.07;3.30;;;;;;;;;;5014601;28;20040;-89
2021/12/17 11:19:50;;;;;;;5.03;2.38;;;;;;;;;;5014276;28;20022;-89
2021/12/17 11:22:16;;;;;;;4.78;2.97;;;;;;;;;;5031963;28;20436;-90
2021/12/17 11:24:41;;;;;;;3.45;2.65;;;;;;;;;;5014350;28;20026;-90
2021/12/17 11:27:07;;;;;;;7.35;3.67;;;;;;;;;;5014551;28;20064;-90
2021/12/17 11:29:33;;;;;;;5.60;3.28;;;;;;;;;;5014322;28;20029;-90
2021/12/17 11:32:03;;;;;;;3.05;2.47;;;;;;;;;;5014389;28;20056;-89
2021/12/17 11:34:30;;;;;;;5.18;3.75;;;;;;;;;;5032124;28;20018;-89
2021/12/17 11:36:55;;;;;;;5.20;3.03;;;;;;;;;;5013382;28;20472;-86
2021/12/17 11:39:25;;;;;;;3.50;2.45;;;;;;;;;;5028965;28;20033;-86
2021/12/17 11:42:14;;;;;;;2.40;2.20;;;;;;;;;;5029400;28;20079;-86
2021/12/17 11:44:41;;;;;;;6.15;2.08;;;;;;;;;;5011582;28;20404;-86
2021/12/17 11:47:09;;;;;;;2.60;1.90;;;;;;;;;;5027974;28;20443;-86
2021/12/17 11:49:39;;;;;;;5.07;2.83;;;;;;;;;;5011288;28;20021;-86
2021/12/17 11:52:04;;;;;;;2.35;2.15;;;;;;;;;;5011220;28;20021;-86
2021/12/17 11:54:31;;;;;;;3.63;2.67;;;;;;;;;;5011035;28;20053;-85
2021/12/17 11:57:04;;;;;;;4.95;2.65;;;;;;;;;;5029486;28;20061;-86
2021/12/17 11:59:31;;;;;;;3.35;2.63;;;;;;;;;;5008017;28;20030;-86
2021/12/17 12:02:03;;;;;;;5.22;2.85;;;;;;;;;;5029725;28;20009;-85
2021/12/17 12:04:34;;;;;;;3.13;2.60;;;;;;;;;;5028681;28;20033;-85
2021/12/17 12:07:00;;;;;;;3.15;1.90;;;;;;;;;;5028113;28;20038;-86
2021/12/17 12:09:46;;;;;;;1.70;1.60;;;;;;;;;;5011409;28;20427;-86
2021/12/17 12:12:11;;;;;;;2.05;1.70;;;;;;;;;;4988685;28;20045;-86
2021/12/17 12:14:36;;;;;;;3.42;1.70;;;;;;;;;;5009735;28;20022;-86
2021/12/17 12:17:02;;;;;;;3.40;2.10;;;;;;;;;;5004258;28;20044;-86
2021/12/17 12:19:47;;;;;;;2.30;1.90;;;;;;;;;;5027618;28;20310;-86
2021/12/17 12:22:12;;;;;;;3.70;2.40;;;;;;;;;;5010038;28;20033;-86
2021/12/17 12:24:37;;;;;;;3.60;2.40;;;;;;;;;;5000619;28;20714;-86
2021/12/17 12:27:03;;;;;;;2.83;2.00;;;;;;;;;;5029006;28;20033;-85
2021/12/17 12:29:29;;;;;;;7.78;2.72;;;;;;;;;;5028774;28;20724;-85
2021/12/17 12:31:59;;;;;;;3.55;2.42;;;;;;;;;;5028477;28;20461;-86
2021/12/17 12:34:32;;;;;;;5.70;2.20;;;;;;;;;;5028648;28;20026;-86
2021/12/17 12:36:58;;;;;;;3.28;2.10;;;;;;;;;;5028788;28;20022;-85
2021/12/17 12:39:23;;;;;;;3.63;2.10;;;;;;;;;;5026991;28;20791;-85
2021/12/17 12:41:56;;;;;;;2.10;1.80;;;;;;;;;;5028621;28;20026;-86
2021/12/17 12:44:39;;;;;;;4.97;2.20;;;;;;;;;;5029873;28;20032;-86
2021/12/17 12:47:05;;;;;;;2.55;1.90;;;;;;;;;;5027681;28;20033;-86
2021/12/17 12:49:40;;;;;;;3.80;2.28;;;;;;;;;;5029203;28;20104;-86
2021/12/17 12:52:20;;;;;;;2.83;2.10;;;;;;;;;;5027590;28;20027;-86
2021/12/17 12:54:49;;;;;;;5.03;2.40;;;;;;;;;;5027226;28;20061;-87
2021/12/17 12:57:22;;;;;;;2.45;1.90;;;;;;;;;;5011191;28;20026;-87
2021/12/17 12:59:50;;;;;;;3.20;1.85;;;;;;;;;;4992035;28;20092;-86
2021/12/17 13:02:15;;;;;;;2.60;1.88;;;;;;;;;;4991116;28;20060;-86
2021/12/17 13:04:41;;;;;;;3.10;1.85;;;;;;;;;;5018878;28;20812;-86
2021/12/17 13:07:06;;;;;;;2.08;1.88;;;;;;;;;;5029851;28;20465;-86
2021/12/17 13:09:31;;;;;;;2.17;1.70;;;;;;;;;;5011334;28;20107;-86
2021/12/17 13:11:56;;;;;;;2.13;1.58;;;;;;;;;;5011491;28;21117;-86
2021/12/17 13:14:25;;;;;;;4.43;2.10;;;;;;;;;;5027304;28;20029;-86
2021/12/17 13:17:18;;;;;;;6.28;1.92;;;;;;;;;;5028699;28;20401;-86
2021/12/17 13:22:53;;;;;;;3.47;1.88;;;;;;;;;;5028741;28;20478;-87
2021/12/17 13:25:25;;;;;;;6.28;3.05;;;;;;;;;;5028619;28;20474;-87
2021/12/17 13:27:51;;;;;;;5.15;2.60;;;;;;;;;;5029046;28;20048;-86
2021/12/17 13:30:22;;;;;;;2.33;2.13;;;;;;;;;;5028967;28;20014;-87
2021/12/17 13:32:47;;;;;;;3.88;2.20;;;;;;;;;;5028060;28;20040;-87
2021/12/17 13:35:14;;;;;;;2.80;2.33;;;;;;;;;;5027363;28;20033;-87
2021/12/17 13:37:39;;;;;;;4.68;2.38;;;;;;;;;;5010623;28;20308;-87
2021/12/17 13:40:09;;;;;;;10.43;3.17;;;;;;;;;;5028804;28;20025;-86
2021/12/17 13:42:36;;;;;;;2.47;2.28;;;;;;;;;;5028486;28;20288;-87
2021/12/17 13:45:01;;;;;;;5.90;2.10;;;;;;;;;;5010061;28;20032;-86
2021/12/17 13:47:29;;;;;;;4.45;2.40;;;;;;;;;;5026458;28;20025;-86
2021/12/17 13:49:57;;;;;;;3.42;2.60;;;;;;;;;;5009290;28;20033;-87
2021/12/17 13:52:24;;;;;;;2.53;2.33;;;;;;;;;;5015848;28;20036;-87
2021/12/17 13:54:50;;;;;;;3.17;2.45;;;;;;;;;;5011245;28;20088;-88
2021/12/17 13:57:19;;;;;;;3.67;2.15;;;;;;;;;;5028538;28;20026;-85
2021/12/17 13:59:45;;;;;;;2.85;2.45;;;;;;;;;;5012031;28;20029;-85
2021/12/17 14:02:12;;;;;;;3.10;2.33;;;;;;;;;;5030136;28;20013;-85
2021/12/17 14:04:37;;;;;;;2.88;2.55;;;;;;;;;;5028767;28;20025;-86
2021/12/17 14:07:03;;;;;;;2.67;2.35;;;;;;;;;;5010618;28;20045;-86
2021/12/17 14:09:29;;;;;;;3.42;2.25;;;;;;;;;;5011329;28;20017;-86
2021/12/17 14:11:57;;;;;;;1.90;1.70;;;;;;;;;;5009896;28;20010;-87
2021/12/17 14:14:23;;;;;;;2.78;1.85;;;;;;;;;;5028092;28;20341;-86
2021/12/17 14:16:55;;;;;;;2.47;2.00;;;;;;;;;;5028030;28;20764;-86
2021/12/17 14:19:33;;;;;;;4.63;1.70;;;;;;;;;;5009884;28;20037;-86
2021/12/17 14:21:59;;;;;;;2.03;1.83;;;;;;;;;;5008195;28;20473;-86
2021/12/17 14:24:30;;;;;;;2.87;1.87;;;;;;;;;;5016538;28;20145;-86
2021/12/17 14:26:55;;;;;;;1.48;1.35;;;;;;;;;;5028123;28;20296;-86
2021/12/17 14:29:22;;;;;;;2.93;1.80;;;;;;;;;;5029473;28;20037;-85
2021/12/17 14:31:57;;;;;;;1.70;1.45;;;;;;;;;;5025761;28;21063;-86
2021/12/17 14:34:22;;;;;;;2.90;2.05;;;;;;;;;;5028211;28;20052;-86
2021/12/17 14:36:47;;;;;;;10.02;1.63;;;;;;;;;;5028236;28;20568;-86
2021/12/17 14:39:17;;;;;;;2.55;1.60;;;;;;;;;;5028200;28;20029;-86
2021/12/17 14:41:56;;;;;;;2.55;1.67;;;;;;;;;;5028389;28;20587;-86
2021/12/17 14:47:06;;;;;;;1.90;1.67;;;;;;;;;;5029576;28;20185;-86
2021/12/17 15:00:27;;;;;;;2.95;2.17;;;;;;;;;;5031255;28;20105;-86
2021/12/17 15:05:26;;;;;;;3.97;2.17;;;;;;;;;;5030619;28;20044;-88
2021/12/17 15:07:53;;;;;;;2.63;2.20;;;;;;;;;;5030138;28;20033;-88
2021/12/17 15:10:19;;;;;;;2.50;1.90;;;;;;;;;;5012207;28;20025;-88
2021/12/17 15:12:45;;;;;;;2.83;2.05;;;;;;;;;;5012110;28;20048;-88
2021/12/17 15:15:20;;;;;;;2.92;2.63;;;;;;;;;;5030160;28;20535;-85
2021/12/17 15:17:46;;;;;;;4.80;3.22;;;;;;;;;;5013578;28;20021;-85
2021/12/17 15:20:12;;;;;;;3.80;2.60;;;;;;;;;;5030577;28;20026;-85
2021/12/17 15:22:38;;;;;;;2.38;2.17;;;;;;;;;;5029452;28;20404;-85
2021/12/17 15:25:04;;;;;;;2.40;2.20;;;;;;;;;;5015595;28;20017;-85
2021/12/17 15:27:33;;;;;;;2.28;1.90;;;;;;;;;;5013125;28;20428;-85
2021/12/17 15:29:58;;;;;;;3.00;2.47;;;;;;;;;;5013013;28;20871;-85
2021/12/17 15:32:23;;;;;;;2.53;2.33;;;;;;;;;;5031249;28;20104;-85
2021/12/17 15:34:50;;;;;;;3.92;2.90;;;;;;;;;;5012503;28;20111;-85
2021/12/17 15:37:16;;;;;;;5.47;2.80;;;;;;;;;;5030404;28;20025;-85
2021/12/17 15:39:41;;;;;;;3.55;2.97;;;;;;;;;;5029089;28;20029;-85
2021/12/17 15:42:06;;;;;;;3.33;3.03;;;;;;;;;;5030300;28;20397;-85
2021/12/17 15:44:32;;;;;;;5.95;3.80;;;;;;;;;;5012441;28;20268;-85
2021/12/17 15:46:57;;;;;;;3.75;3.15;;;;;;;;;;5030662;28;20041;-85
2021/12/17 15:49:22;;;;;;;6.13;4.90;;;;;;;;;;5012259;28;20390;-85
2021/12/17 15:51:47;;;;;;;8.02;5.90;;;;;;;;;;5029701;28;20025;-85
2021/12/17 15:54:13;;;;;;;6.75;5.30;;;;;;;;;;5030528;28;20053;-85
2021/12/17 15:56:40;;;;;;;5.50;4.82;;;;;;;;;;5030064;28;20029;-85
2021/12/17 15:59:06;;;;;;;4.72;3.95;;;;;;;;;;5011649;28;20084;-85
2021/12/17 16:01:31;;;;;;;6.13;4.63;;;;;;;;;;5012333;28;20041;-85
2021/12/17 16:03:56;;;;;;;5.73;4.90;;;;;;;;;;5029896;28;20025;-85
2021/12/17 16:06:21;;;;;;;5.20;4.70;;;;;;;;;;5028556;28;20894;-85
2021/12/17 16:08:52;;;;;;;5.38;4.88;;;;;;;;;;5011637;28;20092;-85
2021/12/17 16:21:55;;;;;;;6.32;5.05;;;;;;;;;;5013230;28;20041;-87
2021/12/17 16:24:21;;;;;;;5.53;4.15;;;;;;;;;;5028845;28;20462;-87
2021/12/17 16:26:46;;;;;;;8.57;4.72;;;;;;;;;;5011280;28;20068;-87
2021/12/17 16:29:17;;;;;;;5.20;4.70;;;;;;;;;;5010583;28;20382;-87
2021/12/17 16:31:42;;;;;;;5.57;5.05;;;;;;;;;;5028897;28;21085;-87
2021/12/17 16:34:07;;;;;;;4.27;3.53;;;;;;;;;;5030577;28;20029;-87
2021/12/17 16:36:34;;;;;;;4.28;3.88;;;;;;;;;;5010855;28;20252;-87
2021/12/17 16:38:59;;;;;;;5.85;4.45;;;;;;;;;;5010775;28;20029;-87
2021/12/17 16:41:25;;;;;;;4.93;4.43;;;;;;;;;;5028401;28;20556;-87
2021/12/17 16:43:58;;;;;;;5.38;4.50;;;;;;;;;;5028436;28;20021;-88
2021/12/17 16:47:01;;;;;;;5.72;4.72;;;;;;;;;;5010616;28;20590;-87
2021/12/17 16:49:13;;;;;;;6.25;4.25;;;;;;;;;;5028184;28;20059;-87
2021/12/17 16:51:39;;;;;;;5.65;4.25;;;;;;;;;;5028248;28;20831;-87
2021/12/17 16:54:04;;;;;;;4.35;3.95;;;;;;;;;;5011339;28;20049;-87
2021/12/17 16:56:30;;;;;;;4.90;4.40;;;;;;;;;;5011065;28;20063;-87
2021/12/17 16:58:55;;;;;;;4.45;4.03;;;;;;;;;;5010047;28;20105;-87
2021/12/17 17:01:20;;;;;;;7.70;4.43;;;;;;;;;;5026534;28;20060;-87
2021/12/17 17:03:45;;;;;;;4.10;3.70;;;;;;;;;;5029101;28;20548;-85
2021/12/17 17:06:11;;;;;;;8.97;7.97;;;;;;;;;;5028676;28;20029;-84
2021/12/17 17:08:36;;;;;;;6.82;5.15;;;;;;;;;;5028386;28;20755;-85
2021/12/17 17:11:04;;;;;;;5.45;4.72;;;;;;;;;;5029401;28;20057;-85
2021/12/17 17:13:30;;;;;;;6.15;4.55;;;;;;;;;;5010928;28;20025;-84
2021/12/17 17:16:03;;;;;;;6.18;4.88;;;;;;;;;;5027813;28;20660;-84
2021/12/17 17:18:28;;;;;;;10.07;5.38;;;;;;;;;;5028845;28;20025;-85
2021/12/17 17:20:53;;;;;;;10.68;4.90;;;;;;;;;;5026994;28;20029;-86
2021/12/17 17:23:18;;;;;;;9.10;5.40;;;;;;;;;;5028188;28;20458;-85
2021/12/17 17:25:43;;;;;;;8.57;5.55;;;;;;;;;;5028783;28;20350;-86
2021/12/17 17:28:09;;;;;;;7.53;5.38;;;;;;;;;;5010946;28;20028;-85
2021/12/17 17:30:35;;;;;;;10.82;6.78;;;;;;;;;;5011257;28;20397;-86
2021/12/17 17:33:01;;;;;;;7.63;5.45;;;;;;;;;;5028582;28;20064;-85
2021/12/17 17:35:26;;;;;;;8.90;5.63;;;;;;;;;;5028550;28;20803;-86
2021/12/17 17:37:51;;;;;;;8.95;5.47;;;;;;;;;;5031239;28;20127;-86
2021/12/17 17:40:16;;;;;;;9.50;6.20;;;;;;;;;;5029279;28;20022;-87